Time;durP1;ratioP1;P1;durP2;ratioP2;P2;SDS_P1;SDS_P2;PMS_P1;PMS_P2;Temp;Humidity;BMP_temperature;BMP_pressure;BME280_temperature;BME280_humidity;BME280_pressure;Samples;Min_cycle;Max_cycle;Signal;HPM_P1;HPM_P2
2023/08/05 00:00:26;;;;;;;;;;;;;;;;;;6303605;28;20253;-59
2023/08/05 00:03:47;;;;;;;;;;;;;;;;;;6305128;28;19928;-61
2023/08/05 00:06:47;;;;;;;;;;;;;;;;;;6303190;28;19926;-63
2023/08/05 00:09:48;;;;;;;;;;;;;;;;;;6304812;28;20415;-61
2023/08/05 00:12:48;;;;;;;;;;;;;;;;;;6304892;28;19930;-62
2023/08/05 00:15:50;;;;;;;;;;;;;;;;;;6306448;28;19928;-63
2023/08/05 00:18:50;;;;;;;;;;;;;;;;;;6306833;28;20353;-62
2023/08/05 00:21:51;;;;;;;;;;;;;;;;;;6306132;28;20287;-62
2023/08/05 00:24:51;;;;;;;;;;;;;;;;;;6304003;28;19935;-61
2023/08/05 00:27:52;;;;;;;;;;;;;;;;;;6285498;28;19973;-62
2023/08/05 00:30:52;;;;;;;;;;;;;;;;;;6307954;28;19931;-62
2023/08/05 00:33:53;;;;;;;;;;;;;;;;;;6304346;28;19931;-62
2023/08/05 00:36:54;;;;;;;;;;;;;;;;;;6304926;28;19935;-62
2023/08/05 00:39:54;;;;;;;;;;;;;;;;;;6304341;28;19928;-56
2023/08/05 00:42:55;;;;;;;;;;;;;;;;;;6307827;28;20455;-62
2023/08/05 00:45:56;;;;;;;;;;;;;;;;;;6300324;28;19928;-62
2023/08/05 00:48:56;;;;;;;;;;;;;;;;;;6301306;28;20315;-58
2023/08/05 00:51:57;;;;;;;;;;;;;;;;;;6307501;28;20510;-59
2023/08/05 00:54:58;;;;;;;;;;;;;;;;;;6306013;28;19969;-63
2023/08/05 00:57:58;;;;;;;;;;;;;;;;;;6305145;28;20397;-61
2023/08/05 01:00:59;;;;;;;;;;;;;;;;;;6303881;28;19982;-61
2023/08/05 01:03:59;;;;;;;;;;;;;;;;;;6306678;28;19927;-62
2023/08/05 01:07:00;;;;;;;;;;;;;;;;;;6305734;28;19928;-58
2023/08/05 01:10:01;;;;;;;;;;;;;;;;;;6306869;28;20769;-57
2023/08/05 01:13:01;;;;;;;;;;;;;;;;;;6304094;28;19928;-62
2023/08/05 01:16:02;;;;;;;;;;;;;;;;;;6300849;28;19920;-62
2023/08/05 01:19:03;;;;;;;;;;;;;;;;;;6303599;28;21413;-62
2023/08/05 01:22:27;;;;;;;;;;;;;;;;;;6303357;28;19927;-61
2023/08/05 01:25:32;;;;;;;;;;;;;;;;;;6292710;28;19935;-60
2023/08/05 01:28:34;;;;;;;;;;;;;;;;;;6305037;28;19946;-62
2023/08/05 01:31:35;;;;;;;;;;;;;;;;;;6303847;28;20276;-61
2023/08/05 01:34:37;;;;;;;;;;;;;;;;;;6306553;28;19928;-61
2023/08/05 01:37:37;;;;;;;;;;;;;;;;;;6303284;28;19927;-61
2023/08/05 01:40:38;;;;;;;;;;;;;;;;;;6301562;28;19958;-62
2023/08/05 01:43:38;;;;;;;;;;;;;;;;;;6306218;28;19928;-60
2023/08/05 01:46:39;;;;;;;;;;;;;;;;;;6304281;28;20397;-60
2023/08/05 01:49:39;;;;;;;;;;;;;;;;;;6299038;28;19928;-62
2023/08/05 01:52:40;;;;;;;;;;;;;;;;;;6295754;28;20288;-62
2023/08/05 01:55:40;;;;;;;;;;;;;;;;;;6295038;28;19928;-62
2023/08/05 01:58:41;;;;;;;;;;;;;;;;;;6293814;28;19924;-62
2023/08/05 02:01:42;;;;;;;;;;;;;;;;;;6296604;28;19935;-61
2023/08/05 02:04:42;;;;;;;;;;;;;;;;;;6292651;28;19924;-61
2023/08/05 02:07:43;;;;;;;;;;;;;;;;;;6295339;28;20035;-62
2023/08/05 02:10:43;;;;;;;;;;;;;;;;;;6294286;28;19920;-61
2023/08/05 02:13:44;;;;;;;;;;;;;;;;;;6292822;28;19928;-61
2023/08/05 02:16:44;;;;;;;;;;;;;;;;;;6295764;28;19924;-62
2023/08/05 02:19:45;;;;;;;;;;;;;;;;;;6294930;28;19924;-62
2023/08/05 02:22:45;;;;;;;;;;;;;;;;;;6293714;28;20603;-62
2023/08/05 02:25:46;;;;;;;;;;;;;;;;;;6294659;28;20014;-62
2023/08/05 02:28:47;;;;;;;;;;;;;;;;;;6308951;28;20299;-63
2023/08/05 02:31:47;;;;;;;;;;;;;;;;;;6307769;28;19931;-60
2023/08/05 02:34:48;;;;;;;;;;;;;;;;;;6310620;28;19975;-61
2023/08/05 02:37:48;;;;;;;;;;;;;;;;;;6315581;28;19920;-61
2023/08/05 02:40:49;;;;;;;;;;;;;;;;;;6296615;28;19924;-62
2023/08/05 02:43:49;;;;;;;;;;;;;;;;;;6305885;28;20035;-59
2023/08/05 02:46:50;;;;;;;;;;;;;;;;;;6302166;28;20296;-60
2023/08/05 02:49:50;;;;;;;;;;;;;;;;;;6301107;28;19928;-61
2023/08/05 02:52:51;;;;;;;;;;;;;;;;;;6299612;28;19927;-61
2023/08/05 02:55:51;;;;;;;;;;;;;;;;;;6298534;28;19931;-61
2023/08/05 02:58:52;;;;;;;;;;;;;;;;;;6299064;28;19924;-61
2023/08/05 03:01:52;;;;;;;;;;;;;;;;;;6299944;28;19946;-62
2023/08/05 03:04:53;;;;;;;;;;;;;;;;;;6304041;28;19931;-62
2023/08/05 03:07:54;;;;;;;;;;;;;;;;;;6308080;28;19927;-62
2023/08/05 03:10:58;;;;;;;;;;;;;;;;;;6299534;28;20030;-59
2023/08/05 03:13:59;;;;;;;;;;;;;;;;;;6300302;28;19920;-62
2023/08/05 03:16:59;;;;;;;;;;;;;;;;;;6299886;28;20638;-62
2023/08/05 03:20:07;;;;;;;;;;;;;;;;;;6306764;28;19928;-63
2023/08/05 03:23:07;;;;;;;;;;;;;;;;;;6297896;28;19928;-62
2023/08/05 03:26:08;;;;;;;;;;;;;;;;;;6300130;28;19927;-61
2023/08/05 03:29:08;;;;;;;;;;;;;;;;;;6296207;28;20991;-62
2023/08/05 03:32:09;;;;;;;;;;;;;;;;;;6298265;28;19924;-62
2023/08/05 03:35:09;;;;;;;;;;;;;;;;;;6300172;28;19977;-62
2023/08/05 03:38:10;;;;;;;;;;;;;;;;;;6303014;28;19935;-64
2023/08/05 03:41:11;;;;;;;;;;;;;;;;;;6302469;28;19928;-56
2023/08/05 03:44:11;;;;;;;;;;;;;;;;;;6299879;28;20251;-61
2023/08/05 03:47:12;;;;;;;;;;;;;;;;;;6296392;28;19986;-60
2023/08/05 03:50:12;;;;;;;;;;;;;;;;;;6298305;28;19920;-62
2023/08/05 03:53:13;;;;;;;;;;;;;;;;;;6302627;28;19924;-62
2023/08/05 03:56:13;;;;;;;;;;;;;;;;;;6300160;28;19924;-61
2023/08/05 03:59:14;;;;;;;;;;;;;;;;;;6298279;28;19924;-61
2023/08/05 04:02:14;;;;;;;;;;;;;;;;;;6298079;28;19972;-61
2023/08/05 04:05:15;;;;;;;;;;;;;;;;;;6299220;28;19932;-61
2023/08/05 04:08:17;;;;;;;;;;;;;;;;;;6297625;28;20275;-61
2023/08/05 04:11:18;;;;;;;;;;;;;;;;;;6300416;28;19924;-61
2023/08/05 04:14:20;;;;;;;;;;;;;;;;;;6295875;28;19928;-58
2023/08/05 04:17:21;;;;;;;;;;;;;;;;;;6297016;28;20031;-62
2023/08/05 04:20:22;;;;;;;;;;;;;;;;;;6298297;28;21054;-61
2023/08/05 04:23:24;;;;;;;;;;;;;;;;;;6296950;28;19928;-60
2023/08/05 04:26:24;;;;;;;;;;;;;;;;;;6297269;28;19942;-61
2023/08/05 04:29:25;;;;;;;;;;;;;;;;;;6297337;28;19924;-60
2023/08/05 04:32:26;;;;;;;;;;;;;;;;;;6300325;28;19927;-61
2023/08/05 04:35:26;;;;;;;;;;;;;;;;;;6297899;28;19920;-62
2023/08/05 04:38:27;;;;;;;;;;;;;;;;;;6298927;28;20472;-62
2023/08/05 04:41:27;;;;;;;;;;;;;;;;;;6296839;28;19927;-61
2023/08/05 04:44:28;;;;;;;;;;;;;;;;;;6299222;28;19920;-61
2023/08/05 04:47:28;;;;;;;;;;;;;;;;;;6296120;28;19920;-60
2023/08/05 04:50:29;;;;;;;;;;;;;;;;;;6296702;28;19927;-60
2023/08/05 04:53:30;;;;;;;;;;;;;;;;;;6297780;28;19924;-61
2023/08/05 04:56:30;;;;;;;;;;;;;;;;;;6299178;28;19927;-62
2023/08/05 04:59:31;;;;;;;;;;;;;;;;;;6298143;28;20295;-62
2023/08/05 05:02:32;;;;;;;;;;;;;;;;;;6307079;28;20378;-61
2023/08/05 05:05:33;;;;;;;;;;;;;;;;;;6296763;28;19997;-62
2023/08/05 05:08:34;;;;;;;;;;;;;;;;;;6296701;28;20329;-60
2023/08/05 05:11:34;;;;;;;;;;;;;;;;;;6295875;28;19966;-59
2023/08/05 05:14:41;;;;;;;;;;;;;;;;;;6296869;28;19924;-61
2023/08/05 05:17:42;;;;;;;;;;;;;;;;;;6296143;28;20450;-62
2023/08/05 05:20:45;;;;;;;;;;;;;;;;;;6297325;28;19928;-59
2023/08/05 05:23:45;;;;;;;;;;;;;;;;;;6303436;28;20006;-61
2023/08/05 05:26:46;;;;;;;;;;;;;;;;;;6299064;28;20425;-59
2023/08/05 05:29:46;;;;;;;;;;;;;;;;;;6298197;28;19923;-62
2023/08/05 05:32:47;;;;;;;;;;;;;;;;;;6300744;28;19931;-60
2023/08/05 05:35:48;;;;;;;;;;;;;;;;;;6297137;28;19923;-63
2023/08/05 05:38:49;;;;;;;;;;;;;;;;;;6293958;28;19926;-61
2023/08/05 05:41:49;;;;;;;;;;;;;;;;;;6313133;28;19928;-60
2023/08/05 05:44:53;;;;;;;;;;;;;;;;;;6300474;28;19928;-57
2023/08/05 05:47:53;;;;;;;;;;;;;;;;;;6307369;28;19923;-62
2023/08/05 05:50:54;;;;;;;;;;;;;;;;;;6310782;28;19928;-61
2023/08/05 05:53:57;;;;;;;;;;;;;;;;;;6298324;28;20333;-59
2023/08/05 05:56:58;;;;;;;;;;;;;;;;;;6297388;28;19930;-62
2023/08/05 05:59:58;;;;;;;;;;;;;;;;;;6295390;28;20299;-57
2023/08/05 06:03:00;;;;;;;;;;;;;;;;;;6295837;28;19962;-60
2023/08/05 06:06:01;;;;;;;;;;;;;;;;;;6297047;28;20446;-62
2023/08/05 06:09:03;;;;;;;;;;;;;;;;;;6296743;28;19924;-62
2023/08/05 06:12:04;;;;;;;;;;;;;;;;;;6293119;28;20309;-59
2023/08/05 06:15:07;;;;;;;;;;;;;;;;;;6290726;28;20070;-59
2023/08/05 06:18:08;;;;;;;;;;;;;;;;;;6290776;28;19938;-62
2023/08/05 06:21:08;;;;;;;;;;;;;;;;;;6296025;28;19931;-60
2023/08/05 06:24:09;;;;;;;;;;;;;;;;;;6296657;28;19924;-61
2023/08/05 06:27:10;;;;;;;;;;;;;;;;;;6295281;28;19924;-62
2023/08/05 06:30:10;;;;;;;;;;;;;;;;;;6295870;28;19928;-62
2023/08/05 06:33:11;;;;;;;;;;;;;;;;;;6297212;28;19930;-61
2023/08/05 06:36:11;;;;;;;;;;;;;;;;;;6296779;28;20399;-62
2023/08/05 06:39:12;;;;;;;;;;;;;;;;;;6294771;28;19920;-58
2023/08/05 06:42:12;;;;;;;;;;;;;;;;;;6292424;28;19927;-58
2023/08/05 06:45:13;;;;;;;;;;;;;;;;;;6309767;28;19928;-54
2023/08/05 06:48:13;;;;;;;;;;;;;;;;;;6310447;28;19946;-52
2023/08/05 06:51:14;;;;;;;;;;;;;;;;;;6309073;28;19959;-59
2023/08/05 06:54:14;;;;;;;;;;;;;;;;;;6314892;28;19919;-60
2023/08/05 06:57:15;;;;;;;;;;;;;;;;;;6314241;28;19924;-60
2023/08/05 07:00:16;;;;;;;;;;;;;;;;;;6313403;28;19924;-59
2023/08/05 07:03:17;;;;;;;;;;;;;;;;;;6313476;28;19928;-61
2023/08/05 07:06:17;;;;;;;;;;;;;;;;;;6310764;28;19919;-59
2023/08/05 07:09:19;;;;;;;;;;;;;;;;;;6295205;28;19924;-58
2023/08/05 07:12:19;;;;;;;;;;;;;;;;;;6300594;28;19931;-61
2023/08/05 07:15:20;;;;;;;;;;;;;;;;;;6292486;28;19932;-59
2023/08/05 07:18:21;;;;;;;;;;;;;;;;;;6297977;28;19928;-60
2023/08/05 07:21:22;;;;;;;;;;;;;;;;;;6296933;28;19931;-57
2023/08/05 07:24:22;;;;;;;;;;;;;;;;;;6312024;28;20305;-60
2023/08/05 07:27:23;;;;;;;;;;;;;;;;;;6305812;28;19924;-60
2023/08/05 07:30:23;;;;;;;;;;;;;;;;;;6297545;28;20291;-61
2023/08/05 07:33:24;;;;;;;;;;;;;;;;;;6298720;28;20621;-59
2023/08/05 07:36:26;;;;;;;;;;;;;;;;;;6297252;28;19920;-60
2023/08/05 07:39:33;;;;;;;;;;;;;;;;;;6297264;28;20279;-61
2023/08/05 07:42:34;;;;;;;;;;;;;;;;;;6299556;28;19921;-57
2023/08/05 07:45:35;;;;;;;;;;;;;;;;;;6299331;28;20298;-60
2023/08/05 07:48:35;;;;;;;;;;;;;;;;;;6296694;28;19924;-59
2023/08/05 07:51:36;;;;;;;;;;;;;;;;;;6296562;28;20425;-60
2023/08/05 07:54:36;;;;;;;;;;;;;;;;;;6295422;28;19950;-57
2023/08/05 07:57:37;;;;;;;;;;;;;;;;;;6298110;28;19924;-60
2023/08/05 08:00:39;;;;;;;;;;;;;;;;;;6297313;28;19931;-59
2023/08/05 08:03:43;;;;;;;;;;;;;;;;;;6298550;28;20363;-60
2023/08/05 08:06:45;;;;;;;;;;;;;;;;;;6296205;28;19932;-59
2023/08/05 08:09:45;;;;;;;;;;;;;;;;;;6295106;28;19972;-60
2023/08/05 08:12:48;;;;;;;;;;;;;;;;;;6296219;28;19924;-55
2023/08/05 08:15:48;;;;;;;;;;;;;;;;;;6297114;28;19924;-60
2023/08/05 08:18:49;;;;;;;;;;;;;;;;;;6296804;28;20472;-60
2023/08/05 08:21:49;;;;;;;;;;;;;;;;;;6298093;28;19935;-60
2023/08/05 08:24:50;;;;;;;;;;;;;;;;;;6297417;28;20001;-60
2023/08/05 08:27:51;;;;;;;;;;;;;;;;;;6295914;28;20015;-61
2023/08/05 08:30:55;;;;;;;;;;;;;;;;;;6295126;28;20293;-60
2023/08/05 08:33:56;;;;;;;;;;;;;;;;;;6295914;28;20573;-60
2023/08/05 08:36:58;;;;;;;;;;;;;;;;;;6296507;28;20382;-59
2023/08/05 08:39:59;;;;;;;;;;;;;;;;;;6297631;28;20024;-59
2023/08/05 08:43:00;;;;;;;;;;;;;;;;;;6295716;28;19920;-60
2023/08/05 08:46:02;;;;;;;;;;;;;;;;;;6290716;28;19920;-60
2023/08/05 08:49:02;;;;;;;;;;;;;;;;;;6296841;28;20018;-59
2023/08/05 08:52:03;;;;;;;;;;;;;;;;;;6296656;28;20320;-57
2023/08/05 08:55:04;;;;;;;;;;;;;;;;;;6279941;28;19924;-59
2023/08/05 08:58:05;;;;;;;;;;;;;;;;;;6295581;28;19920;-58
2023/08/05 09:01:06;;;;;;;;;;;;;;;;;;6296864;28;19921;-57
2023/08/05 09:04:08;;;;;;;;;;;;;;;;;;6295521;28;20597;-59
2023/08/05 09:07:09;;;;;;;;;;;;;;;;;;6300407;28;19969;-61
2023/08/05 09:10:10;;;;;;;;;;;;;;;;;;6299172;28;19946;-59
2023/08/05 09:13:11;;;;;;;;;;;;;;;;;;6297831;28;19931;-59
2023/08/05 09:16:14;;;;;;;;;;;;;;;;;;6297008;28;19943;-59
2023/08/05 09:19:23;;;;;;;;;;;;;;;;;;6297286;28;19924;-59
2023/08/05 09:22:23;;;;;;;;;;;;;;;;;;6294531;28;20386;-59
2023/08/05 09:25:23;;;;;;;;;;;;;;;;;;6296959;28;19920;-58
2023/08/05 09:28:28;;;;;;;;;;;;;;;;;;6294682;28;19970;-58
2023/08/05 09:31:29;;;;;;;;;;;;;;;;;;6295921;28;19953;-56
2023/08/05 09:34:37;;;;;;;;;;;;;;;;;;6293764;28;19921;-57
2023/08/05 09:37:39;;;;;;;;;;;;;;;;;;6295239;28;20437;-60
2023/08/05 09:40:42;;;;;;;;;;;;;;;;;;6293956;28;20275;-60
2023/08/05 09:43:45;;;;;;;;;;;;;;;;;;6292974;28;19924;-60
2023/08/05 09:46:46;;;;;;;;;;;;;;;;;;6294246;28;20454;-56
2023/08/05 09:49:49;;;;;;;;;;;;;;;;;;6294063;28;19924;-60
2023/08/05 09:52:55;;;;;;;;;;;;;;;;;;6295747;28;19967;-60
2023/08/05 09:55:55;;;;;;;;;;;;;;;;;;6293812;28;19924;-59
2023/08/05 09:58:56;;;;;;;;;;;;;;;;;;6294334;28;19932;-61
2023/08/05 10:01:56;;;;;;;;;;;;;;;;;;6297957;28;19923;-60
2023/08/05 10:04:57;;;;;;;;;;;;;;;;;;6307483;28;19924;-57
2023/08/05 10:07:59;;;;;;;;;;;;;;;;;;6313743;28;19927;-58
2023/08/05 10:11:00;;;;;;;;;;;;;;;;;;6294332;28;19924;-61
2023/08/05 10:14:01;;;;;;;;;;;;;;;;;;6296533;28;19931;-57
2023/08/05 10:17:02;;;;;;;;;;;;;;;;;;6296055;28;19920;-58
2023/08/05 10:20:03;;;;;;;;;;;;;;;;;;6295541;28;19920;-61
2023/08/05 10:23:04;;;;;;;;;;;;;;;;;;6293811;28;19920;-60
2023/08/05 10:26:05;;;;;;;;;;;;;;;;;;6292815;28;19986;-60
2023/08/05 10:29:24;;;;;;;;;;;;;;;;;;6292056;28;20340;-61
2023/08/05 10:32:29;;;;;;;;;;;;;;;;;;6291096;28;20308;-59
2023/08/05 10:35:39;;;;;;;;;;;;;;;;;;6292979;28;19924;-61
2023/08/05 10:38:41;;;;;;;;;;;;;;;;;;6300198;28;20059;-60
2023/08/05 10:41:42;;;;;;;;;;;;;;;;;;6300487;28;20027;-61
2023/08/05 10:44:42;;;;;;;;;;;;;;;;;;6295437;28;20279;-59
2023/08/05 10:47:47;;;;;;;;;;;;;;;;;;6294068;28;20435;-60
2023/08/05 10:50:48;;;;;;;;;;;;;;;;;;6296626;28;20260;-59
2023/08/05 10:53:51;;;;;;;;;;;;;;;;;;6298739;28;19963;-60
2023/08/05 10:56:52;;;;;;;;;;;;;;;;;;6297849;28;19928;-57
2023/08/05 10:59:56;;;;;;;;;;;;;;;;;;6300284;28;19924;-57
2023/08/05 11:03:21;;;;;;;;;;;;;;;;;;6310746;28;20371;-61
2023/08/05 11:06:25;;;;;;;;;;;;;;;;;;6308481;28;19927;-61
2023/08/05 11:09:26;;;;;;;;;;;;;;;;;;6309197;28;19930;-59
2023/08/05 11:12:29;;;;;;;;;;;;;;;;;;6314045;28;20328;-61
2023/08/05 11:15:29;;;;;;;;;;;;;;;;;;6312522;28;20381;-58
2023/08/05 11:18:31;;;;;;;;;;;;;;;;;;6318463;28;19928;-62
2023/08/05 11:21:31;;;;;;;;;;;;;;;;;;6316620;28;20299;-61
2023/08/05 11:24:32;;;;;;;;;;;;;;;;;;6316990;28;19924;-60
2023/08/05 11:27:37;;;;;;;;;;;;;;;;;;6316235;28;19924;-59
2023/08/05 11:30:38;;;;;;;;;;;;;;;;;;6318907;28;19920;-61
2023/08/05 11:33:46;;;;;;;;;;;;;;;;;;6294219;28;19995;-60
2023/08/05 11:36:53;;;;;;;;;;;;;;;;;;6293345;28;20345;-62
2023/08/05 11:39:59;;;;;;;;;;;;;;;;;;6293989;28;19927;-61
2023/08/05 11:43:04;;;;;;;;;;;;;;;;;;6295098;28;19959;-61
2023/08/05 11:46:05;;;;;;;;;;;;;;;;;;6299820;28;19924;-60
2023/08/05 11:49:12;;;;;;;;;;;;;;;;;;6292158;28;19930;-60
2023/08/05 11:52:12;;;;;;;;;;;;;;;;;;6294049;28;20029;-60
2023/08/05 11:55:13;;;;;;;;;;;;;;;;;;6292695;28;19920;-59
2023/08/05 11:58:13;;;;;;;;;;;;;;;;;;6311281;28;19927;-60
2023/08/05 12:01:14;;;;;;;;;;;;;;;;;;6318504;28;19920;-60
2023/08/05 12:04:15;;;;;;;;;;;;;;;;;;6318480;28;19920;-59
2023/08/05 12:07:16;;;;;;;;;;;;;;;;;;6318573;28;19926;-58
2023/08/05 12:10:17;;;;;;;;;;;;;;;;;;6318851;28;19963;-59
2023/08/05 12:13:18;;;;;;;;;;;;;;;;;;6318706;28;19926;-58
2023/08/05 12:16:18;;;;;;;;;;;;;;;;;;6318031;28;19919;-58
2023/08/05 12:19:19;;;;;;;;;;;;;;;;;;6303257;28;19931;-59
2023/08/05 12:22:19;;;;;;;;;;;;;;;;;;6317079;28;19920;-53
2023/08/05 12:25:20;;;;;;;;;;;;;;;;;;6315969;28;19946;-56
2023/08/05 12:28:20;;;;;;;;;;;;;;;;;;6310250;28;19932;-57
2023/08/05 12:31:21;;;;;;;;;;;;;;;;;;6314178;28;19978;-59
2023/08/05 12:34:21;;;;;;;;;;;;;;;;;;6314170;28;20255;-59
2023/08/05 12:37:22;;;;;;;;;;;;;;;;;;6316060;28;19935;-57
2023/08/05 12:40:22;;;;;;;;;;;;;;;;;;6317650;28;19927;-60
2023/08/05 12:43:23;;;;;;;;;;;;;;;;;;6318606;28;20357;-59
2023/08/05 12:46:23;;;;;;;;;;;;;;;;;;6315875;28;19992;-59
2023/08/05 12:49:24;;;;;;;;;;;;;;;;;;6316566;28;19977;-58
2023/08/05 12:52:24;;;;;;;;;;;;;;;;;;6316104;28;20685;-60
2023/08/05 12:55:25;;;;;;;;;;;;;;;;;;6321849;28;19924;-60
2023/08/05 12:58:25;;;;;;;;;;;;;;;;;;6313410;28;19928;-60
2023/08/05 13:01:26;;;;;;;;;;;;;;;;;;6324531;28;19982;-57
2023/08/05 13:04:26;;;;;;;;;;;;;;;;;;6314763;28;19997;-59
2023/08/05 13:07:27;;;;;;;;;;;;;;;;;;6313048;28;19974;-58
2023/08/05 13:10:27;;;;;;;;;;;;;;;;;;6319337;28;19924;-60
2023/08/05 13:13:28;;;;;;;;;;;;;;;;;;6313626;28;19924;-58
2023/08/05 13:16:28;;;;;;;;;;;;;;;;;;6320105;28;19927;-59
2023/08/05 13:19:29;;;;;;;;;;;;;;;;;;6312961;28;19927;-60
2023/08/05 13:22:29;;;;;;;;;;;;;;;;;;6319107;28;19919;-60
2023/08/05 13:25:30;;;;;;;;;;;;;;;;;;6317895;28;19923;-60
2023/08/05 13:28:30;;;;;;;;;;;;;;;;;;6316786;28;19923;-61
2023/08/05 13:31:31;;;;;;;;;;;;;;;;;;6319151;28;19953;-59
2023/08/05 13:34:32;;;;;;;;;;;;;;;;;;6317274;28;20313;-56
2023/08/05 13:37:33;;;;;;;;;;;;;;;;;;6312345;28;19923;-61
2023/08/05 13:40:34;;;;;;;;;;;;;;;;;;6303637;28;19923;-61
2023/08/05 13:43:34;;;;;;;;;;;;;;;;;;6319016;28;19924;-56
2023/08/05 13:46:35;;;;;;;;;;;;;;;;;;6321207;28;19924;-62
2023/08/05 13:49:35;;;;;;;;;;;;;;;;;;6313756;28;19927;-57
2023/08/05 13:52:36;;;;;;;;;;;;;;;;;;6316546;28;20095;-59
2023/08/05 13:55:36;;;;;;;;;;;;;;;;;;6315864;28;19927;-57
2023/08/05 13:58:37;;;;;;;;;;;;;;;;;;6311399;28;19935;-57
2023/08/05 14:01:37;;;;;;;;;;;;;;;;;;6324689;28;19920;-56
2023/08/05 14:04:42;;;;;;;;;;;;;;;;;;6315533;28;19920;-58
2023/08/05 14:07:43;;;;;;;;;;;;;;;;;;6313378;28;19927;-58
2023/08/05 14:10:52;;;;;;;;;;;;;;;;;;6320943;28;20360;-57
2023/08/05 14:13:53;;;;;;;;;;;;;;;;;;6313989;28;19924;-56
2023/08/05 14:16:53;;;;;;;;;;;;;;;;;;6320443;28;19974;-58
2023/08/05 14:19:54;;;;;;;;;;;;;;;;;;6315409;28;19924;-59
2023/08/05 14:22:55;;;;;;;;;;;;;;;;;;6319693;28;19943;-59
2023/08/05 14:25:55;;;;;;;;;;;;;;;;;;6316999;28;19980;-59
2023/08/05 14:28:56;;;;;;;;;;;;;;;;;;6317251;28;19928;-58
2023/08/05 14:31:57;;;;;;;;;;;;;;;;;;6321200;28;19927;-59
2023/08/05 14:34:57;;;;;;;;;;;;;;;;;;6321188;28;20740;-59
2023/08/05 14:37:58;;;;;;;;;;;;;;;;;;6320593;28;20402;-56
2023/08/05 14:40:58;;;;;;;;;;;;;;;;;;6321285;28;19927;-59
2023/08/05 14:43:59;;;;;;;;;;;;;;;;;;6324722;28;19956;-59
2023/08/05 14:46:59;;;;;;;;;;;;;;;;;;6320127;28;20293;-59
2023/08/05 14:50:00;;;;;;;;;;;;;;;;;;6325720;28;20148;-58
2023/08/05 14:53:00;;;;;;;;;;;;;;;;;;6324025;28;19924;-59
2023/08/05 14:56:01;;;;;;;;;;;;;;;;;;6319972;28;19924;-61
2023/08/05 14:59:02;;;;;;;;;;;;;;;;;;6321317;28;19926;-55
2023/08/05 15:02:02;;;;;;;;;;;;;;;;;;6328095;28;19920;-60
2023/08/05 15:05:03;;;;;;;;;;;;;;;;;;6324487;28;19931;-59
2023/08/05 15:08:03;;;;;;;;;;;;;;;;;;6320221;28;19934;-60
2023/08/05 15:11:04;;;;;;;;;;;;;;;;;;6319259;28;19926;-60
2023/08/05 15:14:05;;;;;;;;;;;;;;;;;;6321374;28;20368;-60
2023/08/05 15:17:05;;;;;;;;;;;;;;;;;;6314430;28;20360;-59
2023/08/05 15:20:06;;;;;;;;;;;;;;;;;;6316494;28;19959;-60
2023/08/05 15:23:07;;;;;;;;;;;;;;;;;;6319918;28;20690;-59
2023/08/05 15:26:08;;;;;;;;;;;;;;;;;;6318418;28;19927;-60
2023/08/05 15:29:08;;;;;;;;;;;;;;;;;;6317956;28;19939;-60
2023/08/05 15:32:09;;;;;;;;;;;;;;;;;;6320474;28;20279;-60
2023/08/05 15:35:12;;;;;;;;;;;;;;;;;;6315989;28;20440;-59
2023/08/05 15:38:12;;;;;;;;;;;;;;;;;;6315666;28;19924;-61
2023/08/05 15:41:13;;;;;;;;;;;;;;;;;;6320241;28;19935;-60
2023/08/05 15:44:13;;;;;;;;;;;;;;;;;;6319778;28;19920;-60
2023/08/05 15:47:14;;;;;;;;;;;;;;;;;;6320309;28;19919;-61
2023/08/05 15:50:18;;;;;;;;;;;;;;;;;;6314194;28;19924;-59
2023/08/05 15:53:18;;;;;;;;;;;;;;;;;;6316748;28;20409;-60
2023/08/05 15:56:19;;;;;;;;;;;;;;;;;;6316679;28;19927;-60
2023/08/05 15:59:19;;;;;;;;;;;;;;;;;;6316575;28;20276;-60
2023/08/05 16:02:20;;;;;;;;;;;;;;;;;;6316065;28;19928;-58
2023/08/05 16:05:21;;;;;;;;;;;;;;;;;;6320354;28;20290;-59
2023/08/05 16:08:21;;;;;;;;;;;;;;;;;;6319205;28;20423;-59
2023/08/05 16:11:22;;;;;;;;;;;;;;;;;;6323688;28;20540;-59
2023/08/05 16:14:22;;;;;;;;;;;;;;;;;;6323581;28;19928;-60
2023/08/05 16:17:23;;;;;;;;;;;;;;;;;;6319067;28;19927;-59
2023/08/05 16:20:25;;;;;;;;;;;;;;;;;;6316274;28;19997;-61
2023/08/05 16:23:26;;;;;;;;;;;;;;;;;;6319899;28;19936;-60
2023/08/05 16:26:27;;;;;;;;;;;;;;;;;;6316717;28;19924;-61
2023/08/05 16:29:27;;;;;;;;;;;;;;;;;;6319900;28;19972;-60
2023/08/05 16:32:28;;;;;;;;;;;;;;;;;;6316568;28;19932;-61
2023/08/05 16:35:28;;;;;;;;;;;;;;;;;;6319796;28;19927;-60
2023/08/05 16:38:30;;;;;;;;;;;;;;;;;;6317802;28;20014;-59
2023/08/05 16:41:30;;;;;;;;;;;;;;;;;;6319965;28;19935;-61
2023/08/05 16:44:31;;;;;;;;;;;;;;;;;;6316747;28;19928;-57
2023/08/05 16:47:33;;;;;;;;;;;;;;;;;;6318022;28;19924;-60
2023/08/05 16:50:34;;;;;;;;;;;;;;;;;;6315783;28;19923;-59
2023/08/05 16:53:34;;;;;;;;;;;;;;;;;;6320405;28;20605;-59
2023/08/05 16:56:35;;;;;;;;;;;;;;;;;;6319023;28;19958;-59
2023/08/05 16:59:35;;;;;;;;;;;;;;;;;;6312269;28;20394;-61
2023/08/05 17:02:36;;;;;;;;;;;;;;;;;;6319469;28;19951;-59
2023/08/05 17:05:37;;;;;;;;;;;;;;;;;;6318386;28;19931;-57
2023/08/05 17:08:37;;;;;;;;;;;;;;;;;;6313427;28;20037;-58
2023/08/05 17:11:38;;;;;;;;;;;;;;;;;;6319765;28;20364;-59
2023/08/05 17:14:38;;;;;;;;;;;;;;;;;;6314405;28;19920;-58
2023/08/05 17:17:39;;;;;;;;;;;;;;;;;;6314070;28;19954;-54
2023/08/05 17:20:40;;;;;;;;;;;;;;;;;;6318455;28;19935;-59
2023/08/05 17:23:41;;;;;;;;;;;;;;;;;;6318060;28;19928;-59
2023/08/05 17:26:41;;;;;;;;;;;;;;;;;;6315845;28;20318;-56
2023/08/05 17:29:42;;;;;;;;;;;;;;;;;;6320262;28;19928;-57
2023/08/05 17:32:43;;;;;;;;;;;;;;;;;;6313637;28;19972;-58
2023/08/05 17:35:48;;;;;;;;;;;;;;;;;;6313187;28;19935;-59
2023/08/05 17:38:49;;;;;;;;;;;;;;;;;;6319089;28;19923;-58
2023/08/05 17:41:49;;;;;;;;;;;;;;;;;;6314549;28;19980;-56
2023/08/05 17:44:50;;;;;;;;;;;;;;;;;;6314465;28;19934;-59
2023/08/05 17:47:50;;;;;;;;;;;;;;;;;;6314919;28;19935;-60
2023/08/05 17:50:54;;;;;;;;;;;;;;;;;;6316369;28;19962;-57
2023/08/05 17:53:55;;;;;;;;;;;;;;;;;;6317486;28;19927;-59
2023/08/05 17:56:55;;;;;;;;;;;;;;;;;;6314379;28;19949;-58
2023/08/05 17:59:56;;;;;;;;;;;;;;;;;;6316484;28;20299;-60
2023/08/05 18:02:58;;;;;;;;;;;;;;;;;;6314207;28;19928;-54
2023/08/05 18:05:58;;;;;;;;;;;;;;;;;;6312526;28;19969;-53
2023/08/05 18:08:59;;;;;;;;;;;;;;;;;;6311986;28;19927;-59
2023/08/05 18:11:59;;;;;;;;;;;;;;;;;;6317704;28;19935;-58
2023/08/05 18:15:00;;;;;;;;;;;;;;;;;;6310555;28;19928;-54
2023/08/05 18:18:01;;;;;;;;;;;;;;;;;;6310329;28;20321;-59
2023/08/05 18:21:02;;;;;;;;;;;;;;;;;;6323087;28;19928;-59
2023/08/05 18:24:02;;;;;;;;;;;;;;;;;;6316727;28;20011;-61
2023/08/05 18:27:03;;;;;;;;;;;;;;;;;;6310907;28;19935;-60
2023/08/05 18:30:04;;;;;;;;;;;;;;;;;;6310529;28;19923;-60
2023/08/05 18:33:05;;;;;;;;;;;;;;;;;;6320562;28;19919;-60
2023/08/05 18:36:05;;;;;;;;;;;;;;;;;;6311747;28;19920;-60
2023/08/05 18:39:06;;;;;;;;;;;;;;;;;;6313556;28;19919;-60
2023/08/05 18:42:06;;;;;;;;;;;;;;;;;;6315388;28;19924;-60
2023/08/05 18:45:07;;;;;;;;;;;;;;;;;;6318654;28;19946;-60
2023/08/05 18:48:07;;;;;;;;;;;;;;;;;;6313272;28;20741;-59
2023/08/05 18:51:08;;;;;;;;;;;;;;;;;;6322202;28;19923;-59
2023/08/05 18:54:08;;;;;;;;;;;;;;;;;;6314831;28;19924;-59
2023/08/05 18:57:09;;;;;;;;;;;;;;;;;;6318208;28;19926;-59
2023/08/05 19:00:10;;;;;;;;;;;;;;;;;;6319849;28;19942;-57
2023/08/05 19:03:11;;;;;;;;;;;;;;;;;;6319394;28;20373;-59
2023/08/05 19:06:11;;;;;;;;;;;;;;;;;;6312903;28;19934;-59
2023/08/05 19:09:12;;;;;;;;;;;;;;;;;;6311499;28;19942;-59
2023/08/05 19:12:12;;;;;;;;;;;;;;;;;;6322957;28;19924;-59
2023/08/05 19:15:13;;;;;;;;;;;;;;;;;;6319243;28;19949;-59
2023/08/05 19:18:13;;;;;;;;;;;;;;;;;;6318556;28;19931;-59
2023/08/05 19:21:14;;;;;;;;;;;;;;;;;;6324755;28;19927;-59
2023/08/05 19:24:15;;;;;;;;;;;;;;;;;;6324726;28;20342;-58
2023/08/05 19:27:17;;;;;;;;;;;;;;;;;;6313512;28;20264;-59
2023/08/05 19:30:17;;;;;;;;;;;;;;;;;;6318505;28;20284;-60
2023/08/05 19:33:18;;;;;;;;;;;;;;;;;;6324446;28;20015;-59
2023/08/05 19:36:19;;;;;;;;;;;;;;;;;;6322061;28;19931;-58
2023/08/05 19:39:20;;;;;;;;;;;;;;;;;;6314075;28;19928;-60
2023/08/05 19:42:20;;;;;;;;;;;;;;;;;;6316605;28;19997;-60
2023/08/05 19:45:21;;;;;;;;;;;;;;;;;;6320852;28;19938;-59
2023/08/05 19:48:21;;;;;;;;;;;;;;;;;;6315193;28;20227;-59
2023/08/05 19:51:22;;;;;;;;;;;;;;;;;;6325648;28;20849;-59
2023/08/05 19:54:22;;;;;;;;;;;;;;;;;;6318797;28;19927;-60
2023/08/05 19:57:23;;;;;;;;;;;;;;;;;;6310690;28;19935;-60
2023/08/05 20:00:23;;;;;;;;;;;;;;;;;;6312268;28;19973;-60
2023/08/05 20:03:24;;;;;;;;;;;;;;;;;;6314981;28;20018;-60
2023/08/05 20:06:24;;;;;;;;;;;;;;;;;;6317622;28;19928;-60
2023/08/05 20:09:25;;;;;;;;;;;;;;;;;;6320121;28;19973;-59
2023/08/05 20:12:25;;;;;;;;;;;;;;;;;;6322301;28;19921;-59
2023/08/05 20:15:26;;;;;;;;;;;;;;;;;;6318347;28;19954;-61
2023/08/05 20:18:26;;;;;;;;;;;;;;;;;;6319041;28;20004;-59
2023/08/05 20:21:28;;;;;;;;;;;;;;;;;;6319764;28;19923;-59
2023/08/05 20:24:28;;;;;;;;;;;;;;;;;;6316364;28;19928;-60
2023/08/05 20:27:29;;;;;;;;;;;;;;;;;;6322417;28;19928;-60
2023/08/05 20:30:29;;;;;;;;;;;;;;;;;;6322530;28;19928;-60
2023/08/05 20:33:30;;;;;;;;;;;;;;;;;;6317103;28;19931;-59
2023/08/05 20:36:31;;;;;;;;;;;;;;;;;;6316800;28;19928;-59